Sarcobatus Flat, Nevada Weather observations

Data are for observation ending at time listed.
 Day   Time    Ave.   Ave.  Ave.  Vector   Max.   Stn.    Total    Solar   Ave.  
  of    of     Air    Rel.  Wind   Wind    Wind   Baro.  Precip.   Rad.    Soil  
Year   Day     Temp.  Hum.  Speed  Dir.    Gust   Pres.                    Temp. 
2015   (PST)    F      %     mph   deg.    mph     mb.     in.     W/m2     F   
------------------------------------------------------------------------------
 182   22:10   81.9    29    2.7   354      5.0   879.2    0.00       0    999.0
 182   22:20   82.8    29    1.0     3      2.1   879.2    0.00       0    999.0
 182   22:30   82.5    29    0.5   261      1.5   879.4    0.00       0    999.0
 182   22:40   82.0    29    1.4   302      5.5   879.3    0.00       0    999.0
 182   22:50   80.3    30    2.6   315      4.6   879.3    0.00       0    999.0
 182   23:00   80.6    30    0.8   167      3.3   879.3    0.00       0    999.0
 182   23:10   81.4    30    1.2   141      5.3   879.4    0.00       0    999.0
 182   23:20   81.6    29    5.7   122     10.2   879.6    0.00       0    999.0
 182   23:30   83.9    28   13.2   122     28.4   879.8    0.00       0    999.0
 182   23:40   83.8    30   23.5   118     31.9   879.7    0.00       0    999.0
 182   23:50   81.8    35   19.2   104     28.1   879.8    0.00       0    999.0
 183    0:00   81.9    34   15.2    92     21.1   879.8    0.00       0    999.0
 183    0:10   81.0    39    9.3    85     18.8   879.7    0.00       0    999.0
 183    0:20   80.7    40    9.9    61     20.9   879.2    0.00       0    999.0
 183    0:30   80.2    40    7.0    49     15.9   878.7    0.00       0    999.0
 183    0:40   81.5    33    6.0    52     12.3   878.5    0.00       0    999.0
 183    0:50   81.2    35    4.9    39     14.2   878.8    0.00       0    999.0
 183    1:00   80.1    37   10.3   242     14.2   878.9    0.00       0    999.0
 183    1:10   79.9    38    7.1   245     12.3   878.9    0.00       0    999.0
 183    1:20   79.6    38    6.9   178      9.3   879.1    0.00       0    999.0
 183    1:30   78.8    39    4.7   192      8.3   879.2    0.00       0    999.0
 183    1:40   78.1    41    3.8    82      7.2   879.4    0.00       0    999.0
 183    1:50   77.1    44    6.9   115     11.7   879.5    0.00       0    999.0
 183    2:00   76.6    46    8.2   135     11.0   879.4    0.00       0    999.0
 183    2:10   76.0    46    3.4   112      6.8   879.7    0.00       0    999.0
 183    2:20   75.8    46    4.0   124      6.2   879.8    0.00       0    999.0
 183    2:30   76.4    45    3.9   150      6.1   879.8    0.00       0    999.0
 183    2:40   76.2    45    2.1   122      4.2   879.9    0.00       0    999.0
 183    2:50   75.8    46    2.7    74      5.2   879.8    0.00       0    999.0
 183    3:00   76.1    45    3.8    98      5.1   879.8    0.00       0    999.0
 183    3:10   76.2    44    4.2    97      5.5   879.9    0.00       0    999.0
 183    3:20   76.2    44    5.9   102      7.6   880.1    0.00       0    999.0
 183    3:30   76.5    43    4.6   119      6.3   880.3    0.00       0    999.0
 183    3:40   76.4    43    1.6   133      3.5   880.4    0.00       0    999.0
 183    3:50   76.5    42    4.5   162      9.3   880.5    0.00       0    999.0
 183    4:00   76.6    43    5.2   166      8.9   880.5    0.00       0    999.0
 183    4:10   76.1    44    3.8   122      8.5   880.5    0.00       0    999.0
 183    4:20   76.3    45    4.4   160      6.6   880.6    0.00       0    999.0
 183    4:30   75.7    47    0.5   200      2.0   880.6    0.00       0    999.0
 183    4:40   75.0    50    3.7   165      7.6   880.8    0.00       1    999.0
 183    4:50   74.4    53    6.1   162      9.1   880.9    0.00       4    999.0
 183    5:00   74.7    52    3.7   151      8.7   881.1    0.00       6    999.0
 183    5:10   74.9    50    2.6    98      4.1   881.2    0.00       7    999.0
 183    5:20   75.6    47    5.5   125      8.7   881.5    0.00       8    999.0
 183    5:30   76.5    45    7.5   128     10.1   881.6    0.00      10    999.0
 183    5:40   76.0    49    8.4   141     11.3   881.7    0.00      15    999.0
 183    5:50   76.2    47    7.7   142     10.8   881.7    0.00      21    999.0
 183    6:00   76.2    47    6.0   141      7.8   881.6    0.00      26    999.0
 183    6:10   76.1    47    5.5   131      7.6   881.7    0.00      28    999.0
 183    6:20   76.3    47    2.5   118      4.2   881.5    0.00      34    999.0
 183    6:30   76.5    46    2.4   138      3.1   881.5    0.00      52    999.0
 183    6:40   76.8    46    2.0    69      3.4   881.5    0.00      81    999.0
 183    6:50   77.4    45    2.7    11      4.0   881.3    0.00      98    999.0
 183    7:00   78.0    43    3.6    18      6.1   881.1    0.00      98    999.0
 183    7:10   78.4    42    2.7    16      5.8   881.0    0.00      79    999.0
 183    7:20   78.5    42    2.2    14      5.0   881.1    0.00      92    999.0
 183    7:30   79.1    40    1.7    61      3.3   881.0    0.00     135    999.0
 183    7:40   79.5    39    1.3   160      2.6   881.0    0.00     156    999.0
 183    7:50   79.8    39    1.3   139      2.6   881.0    0.00     152    999.0
 183    8:00   80.1    38    0.5   312      2.2   881.1    0.00     162    999.0
 183    8:10   80.5    38    0.7   358      2.6   881.0    0.00     177    999.0
 183    8:20   80.7    38    2.3   142      4.4   881.0    0.00     231    999.0
 183    8:30   80.8    37    2.0   182      4.0   881.1    0.00     222    999.0
 183    8:40   81.0    37    2.6   218      5.1   881.2    0.00     210    999.0
 183    8:50   81.7    36    1.1   221      3.1   881.3    0.00     234    999.0
 183    9:00   81.5    36    3.0   338      4.7   881.2    0.00     223    999.0
 183    9:10   81.7    36    1.8   329      6.0   881.1    0.00     273    999.0
 183    9:20   82.6    35    3.4   279      5.8   881.0    0.00     534    999.0
 183    9:30   83.9    33    2.2     2      7.6   881.0    0.00     636    999.0
 183    9:40   83.2    33    3.6   313      7.7   881.0    0.00     364    999.0
 183    9:50   84.0    33    0.7   257      2.5   881.2    0.00     337    999.0
 183   10:00   84.4    32    2.5    84      5.1   881.2    0.00     363    999.0
 183   10:10   84.8    31    1.4    20      4.7   881.2    0.00     532    999.0
 183   10:20   86.2    29    1.5    34      4.2   881.1    0.00     620    999.0
 183   10:30   87.3    28    3.2   351     10.5   881.1    0.00     846    999.0
 183   10:40   87.0    27    5.1   350      8.8   881.0    0.00     823    999.0
 183   10:50   87.2    27    3.4   352      8.9   880.9    0.00     733    999.0
 183   11:00   87.1    26    3.9   318      8.0   880.8    0.00     555    999.0
 183   11:10   89.0    25    2.0    85      5.5   880.7    0.00    1004    999.0
 183   11:20   90.3    24    3.7    61      9.0   880.6    0.00     999    999.0
 183   11:30   88.8    25    3.9    91      6.5   880.5    0.00     568    999.0
 183   11:40   89.3    25    5.6   128      9.3   880.4    0.00    1153    999.0
 183   11:50   90.0    24    4.2    94      8.5   880.3    0.00     985    999.0
 183   12:00   91.7    23    3.8    24      8.5   880.2    0.00    1116    999.0
 183   12:10   91.3    23    3.4   298      8.5   880.1    0.00    1074    999.0
 183   12:20   92.0    23    6.3   309      9.3   879.9    0.00    1038    999.0
 183   12:30   91.4    23    2.3   313      6.8   879.7    0.00     478    999.0
 183   12:40   92.8    22    5.2   190     13.4   879.5    0.00     868    999.0
 183   12:50   93.1    22    6.2   164     13.3   879.4    0.00     965    999.0
 183   13:00   92.6    22    4.8   148      9.6   879.3    0.00    1011    999.0
 183   13:10   93.8    22    4.8   150     12.2   879.1    0.00    1160    999.0
 183   13:20   94.2    21    7.5   166     14.0   878.8    0.00     727    999.0
 183   13:30   94.9    20    6.8   147     12.3   878.7    0.00    1129    999.0
 183   13:40   93.9    21    7.8   110     12.3   878.5    0.00     749    999.0
 183   13:50   94.2    20    3.7   111      8.5   878.4    0.00     890    999.0
 183   14:00   94.1    20    7.7   221     14.0   878.3    0.00     711    999.0
 183   14:10   94.5    20    7.9   218     12.8   878.1    0.00     531    999.0
 183   14:20   94.6    20    5.2   197     11.9   878.0    0.00     727    999.0
 183   14:30   94.8    20    5.6   165     14.5   877.9    0.00     729    999.0
 183   14:40   94.0    20    4.3   178      9.9   877.7    0.00     490    999.0
 183   14:50   96.5    18   10.7   179     17.0   877.3    0.00     829    999.0
 183   15:00   96.0    18   10.1   172     19.7   877.1    0.00     779    999.0
 183   15:10   95.7    19    7.8   197     16.5   877.1    0.00     664    999.0
 183   15:20   94.4    19    5.2   214     11.7   877.0    0.00     302    999.0
 183   15:30   95.6    19    3.6   295      7.0   876.9    0.00     701    999.0
 183   15:40   96.7    18    7.8   203     21.4   876.7    0.00     672    999.0
 183   15:50   96.5    18    6.2   168     15.2   876.6    0.00     632    999.0
 183   16:00   96.2    18    6.3   192     11.2   876.5    0.00     402    999.0
 183   16:10   94.6    19    4.3   223      9.3   876.4    0.00     162    999.0
 183   16:20   95.4    19    3.1   290      7.5   876.4    0.00     572    999.0
 183   16:30   95.7    19    3.1   308      7.7   876.2    0.00     309    999.0
 183   16:40   94.6    20    7.5   196     12.9   876.2    0.00     160    999.0
 183   16:50   94.7    20    4.2   204     13.4   876.2    0.00     323    999.0
 183   17:00   94.8    20    7.2   207     10.8   876.1    0.00     177    999.0
 183   17:10   93.7    20    4.2   186     10.2   876.1    0.00     140    999.0
 183   17:20   94.1    20    9.1   226     13.6   876.1    0.00     126    999.0
 183   17:30   93.8    20    8.4   209     12.6   876.1    0.00     118    999.0
 183   17:40   94.3    20    6.9   224     13.5   876.1    0.00     232    999.0
 183   17:50   93.8    20    2.5   308      6.4   876.2    0.00      92    999.0
 183   18:00   93.3    21    6.1   277     13.4   876.3    0.00      78    999.0
 183   18:10   90.9    24    9.6   355     17.5   876.6    0.00      68    999.0
 183   18:20   89.6    26    7.0     7     13.2   876.7    0.00      74    999.0
 183   18:30   89.7    25    7.2    17     11.8   876.7    0.00      55    999.0
 183   18:40   89.8    24    7.0    26     11.8   876.7    0.00      23    999.0
 183   18:50   90.1    23    4.8     4      9.3   876.7    0.00       9    999.0
 183   19:00   89.2    25    7.5   317     11.3   876.8    0.00       7    999.0
 183   19:10   86.9    29    8.4   322     11.6   876.8    0.00       4    999.0
 183   19:20   86.3    30    7.3   326     10.3   877.0    0.00       2    999.0
 183   19:30   85.7    32    8.4   302     12.1   877.1    0.00       0    999.0
 183   19:40   85.3    32    8.5   307     13.5   877.3    0.00       0    999.0
 183   19:50   84.5    32    7.4   310     10.8   877.4    0.00       0    999.0
 183   20:00   84.8    33    9.0   325     13.0   877.4    0.00       0    999.0
 183   20:10   84.6    32    7.9   326     10.6   877.5    0.00       0    999.0
 183   20:20   84.0    32    6.5   314     10.2   877.6    0.00       0    999.0
 183   20:30   83.7    32    8.6   318     10.7   877.7    0.00       0    999.0
 183   20:40   83.1    33    7.4   315      9.4   877.8    0.00       0    999.0
 183   20:50   82.6    35    7.0   324      9.3   877.8    0.00       0    999.0
 183   21:00   82.1    38    6.7   327      8.5   877.9    0.00       0    999.0
 183   21:10   81.5    40    6.0   310      8.3   878.0    0.00       0    999.0
 183   21:20   80.9    42    4.9   308      6.8   878.1    0.00       0    999.0
 183   21:30   80.5    42    5.4   329      6.9   878.0    0.00       0    999.0
 183   21:40   79.8    44    5.1   326      6.3   878.0    0.00       0    999.0
 183   21:50   79.4    44    6.5   334      8.2   878.0    0.00       0    999.0
 183   22:00   79.2    43    4.8   359      7.6   878.1    0.00       0    999.0

Return to Sarcobatus Flat, Nevada graphs page.


Western Regional Climate Center,wrcc@dri.edu